Time;durP1;ratioP1;P1;durP2;ratioP2;P2;SDS_P1;SDS_P2;PMS_P1;PMS_P2;Temp;Humidity;BMP_temperature;BMP_pressure;BME280_temperature;BME280_humidity;BME280_pressure;Samples;Min_cycle;Max_cycle;Signal;HPM_P1;HPM_P2
2021/06/21 00:00:39;;;;;;;1.12;0.90;;;;;;;40.77;39.58;161951.28;1715156;83;21868;-93
2021/06/21 00:03:11;;;;;;;1.15;0.95;;;;;;;40.76;39.57;161948.59;1713833;83;21204;-91
2021/06/21 00:05:43;;;;;;;1.65;0.93;;;;;;;40.76;39.57;161948.59;1709294;83;21383;-92
2021/06/21 00:08:17;;;;;;;1.32;1.07;;;;;;;40.74;39.58;161943.17;1712114;83;21383;-92
2021/06/21 00:10:52;;;;;;;1.60;0.82;;;;;;;40.76;39.50;161949.92;1703866;83;21165;-95
2021/06/21 00:13:24;;;;;;;1.27;1.00;;;;;;;40.81;39.44;161962.00;1715614;83;21358;-93
2021/06/21 00:15:57;;;;;;;0.90;0.85;;;;;;;40.75;39.50;161947.23;1718830;81;21264;-95
2021/06/21 00:18:30;;;;;;;1.22;1.12;;;;;;;40.73;39.53;161940.48;1756784;81;21184;-94
2021/06/21 00:21:04;;;;;;;2.55;1.10;;;;;;;40.70;39.56;161932.41;1756959;81;21192;-92
2021/06/21 00:23:37;;;;;;;2.83;1.10;;;;;;;40.67;39.55;161924.41;1755608;82;21179;-95
2021/06/21 00:26:10;;;;;;;1.02;0.80;;;;;;;40.66;39.56;161921.72;1757584;79;21306;-91
2021/06/21 00:28:42;;;;;;;0.75;0.72;;;;;;;40.63;39.59;161914.97;1755817;81;21323;-91
2021/06/21 00:31:15;;;;;;;1.47;1.15;;;;;;;40.61;39.58;161908.28;1753889;82;21812;-96
2021/06/21 00:33:47;;;;;;;1.30;0.82;;;;;;;40.62;39.57;161910.97;1743320;82;21229;-95
2021/06/21 00:36:19;;;;;;;1.50;1.00;;;;;;;40.60;39.58;161906.97;1724619;82;21185;-91
2021/06/21 00:38:52;;;;;;;0.80;0.80;;;;;;;40.58;39.58;161901.59;1744849;82;21321;-91
2021/06/21 00:41:24;;;;;;;1.25;0.80;;;;;;;40.53;39.65;161888.14;1750374;79;21405;-94
2021/06/21 00:43:57;;;;;;;2.05;1.00;;;;;;;40.59;39.58;161904.28;1772232;81;21230;-93
2021/06/21 00:46:31;;;;;;;1.50;1.02;;;;;;;40.51;39.63;161882.77;1739212;82;21337;-95
2021/06/21 00:49:04;;;;;;;0.88;0.82;;;;;;;40.52;39.61;161885.45;1740870;82;21189;-94
2021/06/21 00:51:38;;;;;;;3.72;1.42;;;;;;;40.53;39.58;161886.83;1745456;81;21329;-94
2021/06/21 00:54:11;;;;;;;1.40;1.00;;;;;;;40.48;39.62;161874.75;1747720;82;21324;-93
2021/06/21 00:56:44;;;;;;;1.40;0.90;;;;;;;40.43;39.66;161860.00;1723241;83;21682;-93
2021/06/21 00:59:19;;;;;;;1.02;0.93;;;;;;;40.46;39.55;161868.00;1723194;83;21348;-92
2021/06/21 01:01:52;;;;;;;1.50;0.80;;;;;;;40.45;39.62;161865.38;1723143;82;21217;-93
2021/06/21 01:04:25;;;;;;;2.52;1.00;;;;;;;40.43;39.48;161860.00;1720555;82;21303;-89
2021/06/21 01:06:59;;;;;;;1.47;0.90;;;;;;;40.42;39.61;161858.63;1720467;83;21697;-90
2021/06/21 01:09:31;;;;;;;1.15;0.88;;;;;;;40.42;39.59;161857.31;1720640;83;21376;-91
2021/06/21 01:12:13;;;;;;;3.00;0.90;;;;;;;40.36;39.65;161842.55;1720584;83;21403;-92
2021/06/21 01:14:50;;;;;;;2.08;0.70;;;;;;;40.31;39.70;161827.75;1720743;82;21392;-94
2021/06/21 01:17:25;;;;;;;1.25;0.80;;;;;;;40.21;39.85;161802.23;1709745;83;21321;-94
2021/06/21 01:20:53;;;;;;;1.47;1.07;;;;;;;40.15;39.91;161784.80;1692778;85;21361;-94
2021/06/21 01:24:14;;;;;;;0.98;0.90;;;;;;;40.17;39.90;161790.17;1691648;85;21198;-93
2021/06/21 01:26:52;;;;;;;3.17;0.90;;;;;;;40.22;39.79;161803.61;1690476;85;21388;-95
2021/06/21 01:29:47;;;;;;;2.30;0.85;;;;;;;40.17;39.83;161790.17;1690891;85;21384;-94
2021/06/21 01:32:51;;;;;;;2.00;1.00;;;;;;;40.16;39.81;161788.80;1699266;83;21728;-92
2021/06/21 01:35:39;;;;;;;1.25;0.93;;;;;;;40.13;39.84;161779.42;1722473;82;21256;-93
2021/06/21 01:38:22;;;;;;;1.95;1.02;;;;;;;40.07;39.91;161764.67;1721330;82;21383;-93
2021/06/21 01:40:57;;;;;;;1.85;1.00;;;;;;;40.10;40.06;161771.41;1721306;82;21341;-92
2021/06/21 01:43:36;;;;;;;1.87;0.98;;;;;;;40.12;39.84;161776.73;1722448;83;21231;-93
2021/06/21 01:46:14;;;;;;;1.60;1.00;;;;;;;40.12;39.83;161778.09;1721281;83;21367;-91
2021/06/21 01:48:54;;;;;;;2.02;1.00;;;;;;;40.00;39.91;161744.53;1696306;83;21336;-93
2021/06/21 01:51:28;;;;;;;1.05;0.90;;;;;;;39.91;40.06;161719.03;1684347;83;21420;-93
2021/06/21 01:54:02;;;;;;;0.90;0.70;;;;;;;39.89;40.08;161714.98;1667374;84;21415;-92
2021/06/21 01:56:44;;;;;;;1.40;0.85;;;;;;;39.88;40.08;161712.30;1662498;86;21249;-93
2021/06/21 01:59:18;;;;;;;1.45;1.20;;;;;;;39.92;40.04;161723.09;1663596;86;21360;-93
2021/06/21 02:01:51;;;;;;;2.12;0.90;;;;;;;39.83;40.13;161698.91;1653572;83;21289;-93
2021/06/21 02:04:23;;;;;;;1.02;0.88;;;;;;;39.82;40.12;161694.84;1732038;82;21654;-96
2021/06/21 02:06:56;;;;;;;1.00;0.82;;;;;;;39.78;40.18;161685.47;1701832;82;21356;-92
2021/06/21 02:09:28;;;;;;;1.60;1.07;;;;;;;39.75;40.25;161676.09;1738712;82;21241;-92
2021/06/21 02:12:00;;;;;;;2.27;1.27;;;;;;;39.71;40.26;161666.72;1691784;85;21421;-92
2021/06/21 02:14:32;;;;;;;1.70;0.90;;;;;;;39.70;40.29;161662.72;1729515;83;21197;-92
2021/06/21 02:17:05;;;;;;;0.95;0.85;;;;;;;39.69;40.28;161660.03;1692014;85;21345;-94
2021/06/21 02:19:37;;;;;;;1.30;1.00;;;;;;;39.68;40.29;161657.34;1730806;83;21205;-92
2021/06/21 02:22:10;;;;;;;2.55;1.50;;;;;;;39.67;40.30;161655.97;1729115;83;21165;-95
2021/06/21 02:24:42;;;;;;;1.80;1.00;;;;;;;39.62;40.37;161641.22;1729361;83;21693;-93
2021/06/21 02:27:14;;;;;;;0.82;0.70;;;;;;;39.61;40.38;161639.91;1728982;83;21780;-91
2021/06/21 02:29:50;;;;;;;1.32;0.82;;;;;;;39.66;40.46;161651.97;1688414;83;21177;-95
2021/06/21 02:32:22;;;;;;;2.33;0.98;;;;;;;39.66;40.46;161651.97;1711681;83;21337;-91
2021/06/21 02:34:55;;;;;;;2.00;0.85;;;;;;;39.66;40.27;161651.97;1692169;85;21860;-94
2021/06/21 02:37:27;;;;;;;1.70;1.37;;;;;;;39.63;40.20;161643.91;1733843;80;21347;-94
2021/06/21 02:40:00;;;;;;;2.37;1.45;;;;;;;39.62;40.21;161642.59;1694895;85;21211;-94
2021/06/21 02:42:33;;;;;;;1.10;0.90;;;;;;;39.55;40.27;161623.78;1733288;80;21301;-94
2021/06/21 02:45:06;;;;;;;0.88;0.75;;;;;;;39.55;40.27;161623.78;1695567;85;21349;-93
2021/06/21 02:47:39;;;;;;;1.20;0.85;;;;;;;39.55;40.36;161623.78;1733298;83;21135;-95
2021/06/21 02:50:11;;;;;;;0.80;0.80;;;;;;;39.52;40.37;161615.78;1695555;85;21310;-94
2021/06/21 02:53:13;;;;;;;1.55;0.98;;;;;;;39.52;40.37;161615.78;1732200;83;21344;-93
2021/06/21 02:56:19;;;;;;;1.00;0.90;;;;;;;39.56;40.37;161626.47;1670346;85;21342;-93
2021/06/21 02:58:54;;;;;;;6.22;1.30;;;;;;;39.49;40.43;161606.31;1702831;84;21141;-92
2021/06/21 03:01:26;;;;;;;1.30;0.82;;;;;;;39.50;40.41;161608.98;1658206;86;21211;-94
2021/06/21 03:04:01;;;;;;;0.90;0.90;;;;;;;39.49;40.43;161607.67;1640861;86;21761;-92
2021/06/21 03:06:36;;;;;;;0.75;0.72;;;;;;;39.48;40.50;161604.98;1719367;79;21289;-92
2021/06/21 03:09:08;;;;;;;2.45;1.07;;;;;;;39.48;40.50;161604.98;1783679;80;21150;-93
2021/06/21 03:11:42;;;;;;;5.58;2.08;;;;;;;39.48;40.46;161603.63;1783732;80;21288;-90
2021/06/21 03:14:19;;;;;;;2.35;0.80;;;;;;;39.45;40.48;161596.92;1799108;79;21221;-94
2021/06/21 03:16:55;;;;;;;2.47;1.02;;;;;;;39.44;40.51;161592.92;1803467;79;21182;-94
2021/06/21 03:19:30;;;;;;;1.05;0.90;;;;;;;39.45;40.40;161596.92;1800628;80;21186;-95
2021/06/21 03:22:03;;;;;;;2.02;0.82;;;;;;;39.45;40.40;161596.92;1735884;83;21322;-96
2021/06/21 03:24:35;;;;;;;1.05;0.95;;;;;;;39.42;40.51;161588.86;1799392;80;21745;-93
2021/06/21 03:27:08;;;;;;;1.65;0.90;;;;;;;39.48;40.46;161603.63;1778126;80;21824;-93
2021/06/21 03:29:40;;;;;;;2.45;1.00;;;;;;;39.45;40.48;161595.61;1800356;79;21368;-94
2021/06/21 03:32:32;;;;;;;2.62;0.90;;;;;;;39.46;40.47;161598.30;1800232;80;21316;-93
2021/06/21 03:35:08;;;;;;;1.25;0.88;;;;;;;39.46;40.47;161598.30;1800109;80;21337;-93
2021/06/21 03:37:41;;;;;;;1.37;1.00;;;;;;;39.42;40.55;161588.86;1800740;80;21849;-93
2021/06/21 03:40:14;;;;;;;0.93;0.88;;;;;;;39.41;40.58;161584.86;1802047;80;21250;-96
2021/06/21 03:42:47;;;;;;;1.82;0.98;;;;;;;39.43;40.56;161590.23;1713100;83;21332;-94
2021/06/21 03:45:19;;;;;;;1.45;1.00;;;;;;;39.50;40.48;161608.98;1771882;80;21334;-94
2021/06/21 03:47:52;;;;;;;1.45;0.80;;;;;;;39.51;40.48;161611.72;1770475;80;21310;-95
2021/06/21 03:50:24;;;;;;;1.22;0.78;;;;;;;39.49;40.50;161606.31;1769164;81;21384;-96
2021/06/21 03:52:56;;;;;;;4.92;1.05;;;;;;;39.45;40.55;161596.92;1769772;81;21291;-96
2021/06/21 03:55:29;;;;;;;1.37;1.00;;;;;;;39.45;40.57;161595.61;1748042;81;21214;-95
2021/06/21 03:58:01;;;;;;;1.40;1.17;;;;;;;39.38;40.85;161576.81;1740294;82;21302;-95
2021/06/21 04:00:35;;;;;;;0.95;0.90;;;;;;;39.38;40.85;161576.81;1740621;82;21333;-96
2021/06/21 04:03:07;;;;;;;2.05;0.80;;;;;;;39.44;40.66;161592.92;1740400;81;21186;-96
2021/06/21 04:05:40;;;;;;;0.78;0.70;;;;;;;39.40;40.71;161583.55;1740120;81;21328;-96
2021/06/21 04:08:14;;;;;;;1.62;0.80;;;;;;;39.35;40.62;161570.13;1740715;82;21305;-95
2021/06/21 04:10:48;;;;;;;2.62;0.95;;;;;;;39.35;40.85;161568.80;1740934;82;21697;-95
2021/06/21 04:13:20;;;;;;;4.62;0.90;;;;;;;39.35;40.85;161568.80;1735190;80;21383;-94
2021/06/21 04:15:53;;;;;;;1.22;0.88;;;;;;;39.48;40.46;161603.63;1729083;83;21848;-93
2021/06/21 04:18:25;;;;;;;0.70;0.70;;;;;;;39.48;40.46;161603.63;1758079;82;21197;-93
2021/06/21 04:20:59;;;;;;;2.95;0.78;;;;;;;39.50;40.60;161608.98;1757658;80;21181;-93
2021/06/21 04:23:32;;;;;;;3.08;0.80;;;;;;;39.51;40.62;161613.09;1756527;82;21232;-95
2021/06/21 04:26:05;;;;;;;2.15;0.90;;;;;;;39.68;40.34;161657.34;1759113;80;21338;-93
2021/06/21 04:28:38;;;;;;;1.37;0.90;;;;;;;39.69;40.36;161661.34;1725342;80;21333;-93
2021/06/21 04:31:10;;;;;;;1.77;0.88;;;;;;;39.74;40.26;161674.78;1711931;79;21383;-91
2021/06/21 04:33:43;;;;;;;2.50;0.85;;;;;;;39.73;40.14;161672.09;1751085;80;21539;-94
2021/06/21 04:36:15;;;;;;;0.93;0.80;;;;;;;39.73;40.14;161672.09;1742263;79;21357;-94
2021/06/21 04:38:48;;;;;;;1.47;1.00;;;;;;;39.72;40.31;161669.41;1682148;84;21171;-93
2021/06/21 04:41:20;;;;;;;2.35;1.00;;;;;;;39.75;40.30;161676.09;1682889;84;21346;-92
2021/06/21 04:43:56;;;;;;;1.92;0.80;;;;;;;39.70;40.34;161662.72;1698796;80;22818;-93
2021/06/21 04:49:25;;;;;;;1.98;0.90;;;;;;;39.76;40.31;161678.78;1717687;83;21192;-93
2021/06/21 04:51:57;;;;;;;1.05;0.90;;;;;;;39.77;40.28;161681.47;1718757;80;21349;-88
2021/06/21 04:54:30;;;;;;;1.30;1.00;;;;;;;39.72;40.35;161669.41;1725135;80;21280;-93
2021/06/21 05:00:15;;;;;;;1.02;0.90;;;;;;;39.74;40.38;161674.78;1721252;80;21198;-91
2021/06/21 05:06:06;;;;;;;1.67;1.10;;;;;;;39.72;40.35;161669.41;1728156;80;21193;-93
2021/06/21 05:08:37;;;;;;;1.60;0.98;;;;;;;39.91;40.24;161720.36;1686441;84;21148;-91
2021/06/21 05:11:09;;;;;;;0.80;0.80;;;;;;;39.90;40.24;161717.67;1715168;83;21235;-93
2021/06/21 05:13:42;;;;;;;1.07;0.93;;;;;;;39.90;40.24;161717.67;1655276;87;21343;-93
2021/06/21 05:16:16;;;;;;;1.10;1.00;;;;;;;39.89;40.29;161714.98;1712665;84;21191;-92
2021/06/21 05:18:49;;;;;;;2.52;1.20;;;;;;;39.83;40.18;161697.53;1651024;87;21215;-94
2021/06/21 05:21:21;;;;;;;1.10;0.90;;;;;;;39.86;40.29;161705.59;1710296;84;21187;-95
2021/06/21 05:23:54;;;;;;;1.42;1.05;;;;;;;39.84;40.36;161701.59;1705317;84;21356;-95
2021/06/21 05:26:26;;;;;;;1.10;0.90;;;;;;;39.79;40.23;161686.84;1710288;84;21214;-94
2021/06/21 05:28:59;;;;;;;3.37;0.95;;;;;;;39.86;40.32;161705.59;1710347;84;21218;-95
2021/06/21 05:31:31;;;;;;;1.70;1.10;;;;;;;39.95;40.25;161732.47;1654070;87;21290;-93
2021/06/21 05:34:04;;;;;;;1.85;1.00;;;;;;;39.99;40.20;161741.84;1711707;83;21199;-94
2021/06/21 05:36:36;;;;;;;2.37;0.90;;;;;;;40.02;40.20;161749.91;1667844;84;21318;-96
2021/06/21 05:39:08;;;;;;;1.07;0.80;;;;;;;39.99;40.25;161743.22;1664579;82;21311;-94
2021/06/21 05:41:41;;;;;;;1.30;1.20;;;;;;;39.92;40.36;161723.09;1770134;81;21285;-96
2021/06/21 05:44:14;;;;;;;1.12;1.00;;;;;;;40.18;40.19;161794.17;1779561;80;21305;-96
2021/06/21 05:46:47;;;;;;;1.10;1.00;;;;;;;40.18;40.19;161794.17;1723345;79;21345;-92
2021/06/21 05:49:20;;;;;;;2.55;1.00;;;;;;;40.22;40.12;161804.92;1706729;84;21198;-94
2021/06/21 05:51:52;;;;;;;0.80;0.80;;;;;;;40.21;40.26;161800.92;1707237;84;21242;-90
2021/06/21 05:54:25;;;;;;;1.20;1.10;;;;;;;40.28;40.18;161819.69;1703110;84;21221;-92
2021/06/21 05:56:58;;;;;;;1.85;1.00;;;;;;;40.28;40.18;161819.69;1699423;84;21436;-90
2021/06/21 05:59:31;;;;;;;1.35;1.22;;;;;;;40.34;40.21;161837.17;1675899;83;21200;-90
2021/06/21 06:02:03;;;;;;;1.42;1.00;;;;;;;40.36;40.22;161842.55;1674147;86;21226;-90
2021/06/21 06:04:36;;;;;;;1.30;0.90;;;;;;;40.40;40.20;161851.94;1674010;86;21202;-91
2021/06/21 06:07:09;;;;;;;1.45;0.95;;;;;;;40.41;40.23;161855.94;1673955;86;21254;-89
2021/06/21 06:09:41;;;;;;;6.15;1.20;;;;;;;40.46;40.19;161868.00;1674174;86;21211;-89
2021/06/21 06:12:14;;;;;;;3.35;1.10;;;;;;;40.50;40.12;161878.75;1674155;84;21203;-89
2021/06/21 06:14:47;;;;;;;2.83;1.17;;;;;;;40.52;40.15;161885.45;1674194;86;21298;-90
2021/06/21 06:17:20;;;;;;;1.22;0.90;;;;;;;40.55;40.13;161892.20;1674192;86;21757;-94
2021/06/21 06:19:52;;;;;;;1.12;1.00;;;;;;;40.50;40.16;161880.13;1674344;84;21350;-93
2021/06/21 06:22:24;;;;;;;2.37;1.00;;;;;;;40.51;40.19;161882.77;1702579;84;21383;-92
2021/06/21 06:24:56;;;;;;;1.15;1.05;;;;;;;40.56;40.15;161894.89;1696512;84;21339;-94
2021/06/21 06:27:29;;;;;;;3.37;1.30;;;;;;;40.54;40.19;161889.52;1696963;84;21335;-92
2021/06/21 06:30:02;;;;;;;1.67;1.17;;;;;;;40.62;40.16;161912.34;1717007;83;21368;-92
2021/06/21 06:32:35;;;;;;;4.08;1.10;;;;;;;40.64;40.18;161916.34;1674591;84;21187;-89
2021/06/21 06:35:09;;;;;;;2.05;1.22;;;;;;;40.67;40.19;161925.72;1674094;84;21777;-95
2021/06/21 06:37:42;;;;;;;1.50;1.10;;;;;;;40.72;40.18;161937.80;1703801;84;21215;-92
2021/06/21 06:40:15;;;;;;;1.52;1.10;;;;;;;40.62;40.32;161912.34;1674435;86;21238;-91
2021/06/21 06:42:47;;;;;;;2.98;1.00;;;;;;;40.65;40.42;161920.34;1703257;84;21238;-92
2021/06/21 06:45:19;;;;;;;1.82;1.00;;;;;;;40.76;40.31;161949.92;1687323;85;21202;-96
2021/06/21 06:47:52;;;;;;;1.30;1.00;;;;;;;40.75;40.39;161947.23;1645735;86;21992;-92
2021/06/21 06:50:24;;;;;;;1.67;1.22;;;;;;;40.78;40.41;161955.30;1667739;86;21254;-86
2021/06/21 06:52:58;;;;;;;1.77;0.88;;;;;;;40.73;40.58;161940.48;1667930;86;21289;-87
2021/06/21 06:58:21;;;;;;;2.17;1.35;;;;;;;41.00;40.35;162014.34;1668302;86;21686;-83
2021/06/21 07:00:54;;;;;;;3.08;1.30;;;;;;;41.09;40.26;162038.48;1682820;84;21789;-86
2021/06/21 07:03:26;;;;;;;3.47;1.30;;;;;;;41.13;40.27;162050.62;1666124;86;21197;-87
2021/06/21 07:06:01;;;;;;;2.83;1.27;;;;;;;41.28;40.12;162090.91;1665711;86;21225;-88
2021/06/21 07:08:34;;;;;;;2.22;1.30;;;;;;;41.35;40.12;162108.36;1668047;86;21361;-88
2021/06/21 07:11:06;;;;;;;1.85;1.32;;;;;;;41.39;40.18;162119.13;1667804;86;21705;-88
2021/06/21 07:13:40;;;;;;;1.25;1.00;;;;;;;41.44;40.17;162133.88;1664170;86;21298;-87
2021/06/21 07:16:13;;;;;;;1.60;1.50;;;;;;;41.45;40.14;162136.56;1641830;85;21785;-89
2021/06/21 07:18:45;;;;;;;1.47;1.30;;;;;;;41.41;40.27;162125.81;1661519;84;21356;-89
2021/06/21 07:21:18;;;;;;;4.67;1.50;;;;;;;41.40;40.32;162123.12;1698523;83;21285;-89
2021/06/21 07:23:50;;;;;;;2.95;1.60;;;;;;;41.51;40.27;162152.66;1645189;84;21792;-89
2021/06/21 07:26:23;;;;;;;2.42;1.35;;;;;;;41.52;40.30;162155.34;1646139;84;21206;-87
2021/06/21 07:28:55;;;;;;;1.72;1.30;;;;;;;41.56;40.34;162164.78;1647764;84;21242;-86
2021/06/21 07:31:28;;;;;;;4.30;2.85;;;;;;;41.63;40.33;162184.94;1656562;84;21261;-85
2021/06/21 07:34:01;;;;;;;4.30;2.72;;;;;;;41.67;40.35;162194.37;1647815;84;21317;-84
2021/06/21 07:36:34;;;;;;;3.50;2.83;;;;;;;41.72;40.38;162207.78;1657616;84;21234;-84
2021/06/21 07:39:08;;;;;;;2.67;2.45;;;;;;;41.85;40.37;162242.69;1655850;84;21264;-86
2021/06/21 07:41:40;;;;;;;3.45;2.45;;;;;;;41.93;40.33;162265.53;1646899;84;21855;-85
2021/06/21 07:44:15;;;;;;;2.75;1.87;;;;;;;41.96;40.35;162274.98;1655088;84;21249;-84
2021/06/21 07:46:48;;;;;;;3.20;1.90;;;;;;;42.02;40.32;162289.75;1663698;84;21697;-85
2021/06/21 07:49:21;;;;;;;2.77;2.05;;;;;;;42.04;40.37;162296.44;1650685;84;22575;-83
2021/06/21 07:51:53;;;;;;;3.52;2.20;;;;;;;42.01;40.52;162287.06;1657163;84;21824;-87
2021/06/21 07:54:26;;;;;;;2.92;2.27;;;;;;;42.04;40.64;162295.12;1675449;84;21257;-84
2021/06/21 07:56:59;;;;;;;3.62;2.17;;;;;;;42.11;40.63;162315.28;1681358;84;21238;-84
2021/06/21 07:59:31;;;;;;;5.22;2.12;;;;;;;42.16;40.62;162327.37;1672293;85;21320;-83
2021/06/21 08:02:04;;;;;;;2.62;1.98;;;;;;;42.15;40.79;162326.00;1671930;85;21391;-84
2021/06/21 08:04:37;;;;;;;3.00;1.60;;;;;;;42.26;40.73;162355.53;1671656;84;21719;-83
2021/06/21 08:07:09;;;;;;;2.92;1.80;;;;;;;42.35;40.81;162378.44;1673211;84;21813;-84
2021/06/21 08:09:42;;;;;;;2.72;1.80;;;;;;;42.33;40.85;162374.37;1672616;84;21171;-84
2021/06/21 08:12:14;;;;;;;3.50;2.25;;;;;;;42.43;40.83;162401.28;1673620;85;21328;-83
2021/06/21 08:14:48;;;;;;;2.05;1.70;;;;;;;42.49;40.79;162417.38;1671778;85;21335;-83
2021/06/21 08:17:20;;;;;;;3.55;1.60;;;;;;;42.52;40.78;162425.45;1672630;85;21337;-85
2021/06/21 08:19:53;;;;;;;3.70;1.65;;;;;;;42.55;40.87;162432.16;1671746;86;21320;-85
2021/06/21 08:22:25;;;;;;;2.40;2.00;;;;;;;42.59;40.83;162444.30;1673121;86;21372;-84
2021/06/21 08:24:57;;;;;;;1.75;1.40;;;;;;;42.67;40.85;162464.41;1726438;82;21184;-85
2021/06/21 08:27:30;;;;;;;6.53;1.82;;;;;;;42.72;40.85;162479.19;1676714;85;21495;-85
2021/06/21 08:30:04;;;;;;;4.28;1.50;;;;;;;42.83;40.80;162508.80;1674664;85;21257;-84
2021/06/21 08:32:39;;;;;;;4.22;1.50;;;;;;;42.89;40.79;162524.94;1665886;85;21340;-84
2021/06/21 08:35:11;;;;;;;2.50;1.40;;;;;;;42.97;40.82;162547.80;1713168;82;21699;-84
2021/06/21 08:37:45;;;;;;;2.20;1.35;;;;;;;43.01;40.78;162558.52;1637398;87;21725;-84
2021/06/21 08:40:19;;;;;;;2.37;1.57;;;;;;;42.99;41.00;162551.81;1664060;85;21363;-85
2021/06/21 08:42:52;;;;;;;10.30;1.30;;;;;;;43.11;40.81;162584.06;1650471;85;21254;-85
2021/06/21 08:45:24;;;;;;;3.67;1.60;;;;;;;43.13;40.84;162589.50;1647538;87;21197;-86
2021/06/21 08:47:57;;;;;;;1.40;1.25;;;;;;;43.17;40.81;162601.59;1646269;86;21385;-86
2021/06/21 08:50:30;;;;;;;5.08;2.25;;;;;;;43.19;40.83;162606.97;1674100;85;21355;-85
2021/06/21 08:53:02;;;;;;;4.67;3.55;;;;;;;43.29;40.83;162633.84;1665853;84;21721;-86
2021/06/21 08:55:36;;;;;;;5.35;2.15;;;;;;;43.30;40.86;162636.55;1733791;82;21347;-85
2021/06/21 08:58:08;;;;;;;4.67;2.35;;;;;;;43.34;40.83;162647.31;1674917;84;21391;-85
2021/06/21 09:00:41;;;;;;;5.12;2.40;;;;;;;43.41;40.81;162664.73;1674733;84;21179;-85
2021/06/21 09:03:13;;;;;;;2.87;2.10;;;;;;;43.43;40.75;162671.50;1674770;85;21222;-88
2021/06/21 09:05:46;;;;;;;2.80;2.00;;;;;;;43.47;40.79;162682.22;1675321;84;21337;-87
2021/06/21 09:08:18;;;;;;;7.42;2.58;;;;;;;43.54;40.78;162699.75;1673895;85;21956;-87
2021/06/21 09:10:52;;;;;;;4.25;2.10;;;;;;;43.62;40.72;162721.28;1674157;85;21367;-92
2021/06/21 09:13:25;;;;;;;3.00;2.00;;;;;;;43.67;40.73;162736.06;1671385;84;21258;-90
2021/06/21 09:15:57;;;;;;;2.33;1.75;;;;;;;43.71;40.67;162745.47;1599065;87;21182;-88
2021/06/21 09:18:39;;;;;;;4.80;2.22;;;;;;;43.77;40.57;162761.58;1674832;85;21442;-89
2021/06/21 09:21:26;;;;;;;;;;;;;;;43.73;40.68;162750.86;1675760;86;21376;-88
2021/06/21 09:24:01;;;;;;;5.10;1.95;;;;;;;43.77;40.74;162761.58;1671811;85;20649;-92
2021/06/21 09:26:34;;;;;;;4.45;2.00;;;;;;;43.81;40.74;162772.36;1674718;85;21211;-87
2021/06/21 09:29:06;;;;;;;3.25;2.00;;;;;;;43.83;40.67;162777.75;1718192;83;21356;-88
2021/06/21 09:31:54;;;;;;;4.87;2.02;;;;;;;43.87;40.54;162789.83;1712138;84;21241;-87
2021/06/21 09:34:27;;;;;;;2.65;1.80;;;;;;;43.95;40.42;162812.75;1709589;83;21218;-84
2021/06/21 09:37:19;;;;;;;5.45;1.70;;;;;;;43.99;40.35;162823.48;1674782;84;21340;-86
2021/06/21 09:39:53;;;;;;;2.33;1.80;;;;;;;44.02;40.32;162831.56;1674854;84;21384;-88
2021/06/21 09:42:27;;;;;;;2.98;1.70;;;;;;;44.28;40.09;162901.55;1675040;85;21832;-85
2021/06/21 09:45:00;;;;;;;2.37;1.60;;;;;;;44.22;40.21;162885.33;1674750;84;21380;-87
2021/06/21 09:47:43;;;;;;;2.55;1.70;;;;;;;44.37;40.05;162924.44;1674305;85;21319;-85
2021/06/21 09:50:22;;;;;;;2.55;1.77;;;;;;;44.35;40.10;162919.03;1678612;85;21447;-85
2021/06/21 09:53:05;;;;;;;5.35;1.70;;;;;;;44.37;40.11;162925.75;1678923;85;21201;-86
2021/06/21 09:55:48;;;;;;;1.85;1.72;;;;;;;44.35;40.21;162919.03;1678926;85;21385;-90
2021/06/21 09:58:21;;;;;;;3.55;1.35;;;;;;;44.37;40.21;162925.75;1678658;85;21346;-91
2021/06/21 10:01:13;;;;;;;3.83;1.50;;;;;;;44.37;40.18;162925.75;1677188;85;21872;-89
2021/06/21 10:03:45;;;;;;;2.40;1.60;;;;;;;44.50;40.05;162960.72;1672183;86;21780;-87
2021/06/21 10:06:18;;;;;;;2.42;1.52;;;;;;;44.57;39.97;162978.22;1678171;85;21379;-88
2021/06/21 10:08:53;;;;;;;2.95;1.75;;;;;;;44.64;39.84;162998.45;1647545;87;21447;-86
2021/06/21 10:11:43;;;;;;;4.60;2.30;;;;;;;44.69;39.76;163011.86;1669308;84;21419;-85
2021/06/21 10:14:18;;;;;;;4.33;1.90;;;;;;;44.75;39.72;163028.03;1703972;82;21459;-86
2021/06/21 10:16:52;;;;;;;3.92;1.52;;;;;;;44.80;39.69;163041.47;1674052;83;21354;-87
2021/06/21 10:19:25;;;;;;;2.67;1.70;;;;;;;44.86;39.57;163058.95;1660775;85;21423;-86
2021/06/21 10:21:58;;;;;;;2.95;1.82;;;;;;;44.94;39.44;163080.52;1655947;84;21348;-84
2021/06/21 10:24:31;;;;;;;5.47;1.60;;;;;;;44.99;39.35;163093.94;1655040;85;21353;-87
2021/06/21 10:27:06;;;;;;;1.72;1.40;;;;;;;45.03;39.34;163103.39;1654635;84;21386;-87
2021/06/21 10:29:39;;;;;;;5.67;1.85;;;;;;;45.02;39.44;163100.75;1656018;85;21189;-87
2021/06/21 10:32:11;;;;;;;3.25;1.92;;;;;;;45.10;39.43;163122.27;1655136;85;21245;-88
2021/06/21 10:34:49;;;;;;;4.42;1.70;;;;;;;45.11;39.50;163126.28;1666149;84;21285;-88
2021/06/21 10:37:25;;;;;;;5.72;2.00;;;;;;;45.24;39.36;163159.94;1665584;84;21245;-88
2021/06/21 10:40:01;;;;;;;5.12;1.50;;;;;;;45.32;39.30;163181.45;1653585;84;21406;-86
2021/06/21 10:42:36;;;;;;;2.20;1.60;;;;;;;45.40;39.29;163204.41;1652381;85;21180;-87
2021/06/21 10:45:11;;;;;;;2.25;1.85;;;;;;;45.65;39.03;163270.31;1653331;84;21261;-86
2021/06/21 10:47:49;;;;;;;3.45;2.33;;;;;;;45.65;38.94;163271.70;1627930;84;21343;-86
2021/06/21 10:50:26;;;;;;;3.80;1.65;;;;;;;45.68;39.02;163278.41;1655485;84;21787;-86
2021/06/21 10:53:01;;;;;;;4.40;1.77;;;;;;;45.69;39.04;163281.11;1656059;84;21272;-90
2021/06/21 10:55:36;;;;;;;3.12;1.60;;;;;;;45.75;38.97;163297.28;1647354;86;21379;-90
2021/06/21 10:58:23;;;;;;;4.50;1.77;;;;;;;45.82;38.90;163316.16;1658860;84;21263;-90
2021/06/21 11:00:56;;;;;;;3.95;1.60;;;;;;;45.84;38.89;163322.88;1646281;84;21763;-87
2021/06/21 11:03:37;;;;;;;5.72;1.87;;;;;;;45.88;38.93;163333.66;1647398;84;21781;-88
2021/06/21 11:06:12;;;;;;;3.47;1.80;;;;;;;45.94;38.91;163349.80;1645247;84;21245;-93
2021/06/21 11:08:47;;;;;;;3.08;1.90;;;;;;;45.99;38.80;163363.28;1642692;86;21261;-89
2021/06/21 11:11:43;;;;;;;7.75;3.15;;;;;;;46.09;38.75;163391.50;1661533;84;21218;-87
2021/06/21 11:14:23;;;;;;;4.28;1.32;;;;;;;46.13;38.73;163402.34;1634297;84;21222;-90
2021/06/21 11:17:19;;;;;;;17.57;2.60;;;;;;;46.20;38.60;163419.86;1648305;84;21724;-90
2021/06/21 11:19:52;;;;;;;3.00;1.90;;;;;;;46.25;38.60;163433.28;1645943;84;21197;-88
2021/06/21 11:22:49;;;;;;;7.05;4.87;;;;;;;46.31;38.55;163450.80;1648170;84;21277;-87
2021/06/21 11:25:26;;;;;;;3.22;2.40;;;;;;;46.38;38.46;163468.30;1652218;86;21305;-88
2021/06/21 11:28:00;;;;;;;4.87;2.50;;;;;;;46.42;38.46;163479.09;1657648;84;21789;-90
2021/06/21 11:30:40;;;;;;;6.33;2.70;;;;;;;46.48;38.42;163496.66;1652304;84;21221;-88
2021/06/21 11:33:15;;;;;;;4.35;2.52;;;;;;;46.50;38.45;163500.67;1657538;84;21709;-91
2021/06/21 11:36:01;;;;;;;3.70;2.20;;;;;;;46.56;38.46;163516.86;1647266;84;21251;-90
2021/06/21 11:38:42;;;;;;;4.28;2.22;;;;;;;46.64;38.40;163539.75;1650497;84;21214;-91
2021/06/21 11:41:27;;;;;;;5.58;2.20;;;;;;;46.68;38.39;163550.50;1624012;86;21297;-89
2021/06/21 11:44:01;;;;;;;5.50;1.85;;;;;;;46.74;38.39;163566.69;1698041;83;21289;-87
2021/06/21 11:46:43;;;;;;;4.85;2.00;;;;;;;46.81;38.30;163585.58;1647820;84;21205;-88
2021/06/21 11:49:20;;;;;;;4.58;2.10;;;;;;;46.87;38.24;163603.09;1644926;84;21281;-91
2021/06/21 11:52:00;;;;;;;5.85;2.22;;;;;;;46.83;38.36;163590.97;1653887;84;21305;-87
2021/06/21 11:54:40;;;;;;;5.17;2.00;;;;;;;46.87;38.34;163601.75;1650607;85;21277;-88
2021/06/21 11:57:14;;;;;;;4.15;2.20;;;;;;;46.90;38.26;163609.80;1650983;84;21899;-92
2021/06/21 11:59:48;;;;;;;2.02;1.82;;;;;;;46.87;38.23;163603.09;1664261;84;21367;-86
2021/06/21 12:02:23;;;;;;;2.77;1.72;;;;;;;46.90;38.19;163609.80;1658265;84;21218;-90
2021/06/21 12:04:56;;;;;;;3.20;2.27;;;;;;;46.88;38.23;163605.78;1647535;85;21459;-92
2021/06/21 12:07:47;;;;;;;4.55;2.02;;;;;;;46.88;38.14;163604.41;1651558;84;21297;-92
2021/06/21 12:10:20;;;;;;;5.42;2.10;;;;;;;46.93;38.18;163617.89;1651786;84;21808;-93
2021/06/21 12:12:56;;;;;;;4.42;2.05;;;;;;;46.92;38.14;163615.19;1654012;85;21399;-91